createdAt,value
2018-03-07T00:00:02.689Z,9.84
2018-03-07T00:02:30.110Z,9.74
2018-03-07T00:04:57.509Z,9.70
2018-03-07T00:07:24.934Z,9.72
2018-03-07T00:21:16.198Z,9.58
2018-03-07T00:23:43.592Z,9.58
2018-03-07T00:26:10.985Z,9.56
2018-03-07T00:28:38.539Z,9.49
2018-03-07T00:31:06.019Z,9.65
2018-03-07T00:33:33.531Z,9.65
2018-03-07T00:36:00.929Z,9.75
2018-03-07T00:38:28.311Z,9.64
2018-03-07T00:40:55.716Z,9.48
2018-03-07T00:43:23.175Z,9.77
2018-03-07T00:45:50.568Z,9.67
2018-03-07T00:48:18.041Z,9.56
2018-03-07T00:50:45.593Z,9.47
2018-03-07T00:53:13.110Z,9.37
2018-03-07T00:55:40.668Z,9.45
2018-03-07T00:58:08.141Z,9.45
2018-03-07T01:00:35.593Z,9.65
2018-03-07T01:03:03.046Z,9.65
2018-03-07T01:05:30.476Z,9.52
2018-03-07T01:07:57.901Z,9.51
2018-03-07T01:10:25.349Z,9.61
2018-03-07T01:12:52.883Z,9.42
2018-03-07T01:15:20.303Z,9.61
2018-03-07T01:17:47.790Z,9.36
2018-03-07T01:20:15.378Z,9.35
2018-03-07T01:22:44.182Z,9.38
2018-03-07T01:25:11.573Z,9.22
2018-03-07T01:27:39.061Z,9.45
2018-03-07T01:30:08.394Z,9.58
2018-03-07T01:32:35.874Z,9.48
2018-03-07T01:35:03.363Z,9.24
2018-03-07T01:37:30.769Z,9.16
2018-03-07T01:42:48.511Z,9.43
2018-03-07T01:45:15.919Z,9.32
2018-03-07T01:47:43.318Z,9.29
2018-03-07T01:50:10.703Z,9.44
2018-03-07T01:52:38.138Z,9.22
2018-03-07T01:55:05.734Z,9.00
2018-03-07T01:57:33.339Z,9.22
2018-03-07T02:00:01.749Z,8.99
2018-03-07T02:02:29.331Z,9.29
2018-03-07T02:04:56.736Z,9.12
2018-03-07T02:07:24.125Z,9.24
2018-03-07T02:09:52.635Z,9.40
2018-03-07T02:12:20.037Z,9.00
2018-03-07T02:14:47.479Z,9.13
2018-03-07T02:17:14.973Z,9.11
2018-03-07T02:19:43.337Z,9.12
2018-03-07T02:22:10.744Z,9.13
2018-03-07T02:24:38.149Z,8.95
2018-03-07T02:27:05.691Z,9.15
2018-03-07T02:29:33.386Z,9.12
2018-03-07T02:32:01.001Z,9.00
2018-03-07T02:34:28.426Z,9.16
2018-03-07T02:36:55.831Z,9.12
2018-03-07T02:39:23.230Z,9.15
2018-03-07T02:41:50.635Z,9.05
2018-03-07T02:44:18.021Z,9.18
2018-03-07T02:46:45.477Z,8.87
2018-03-07T02:49:13.622Z,8.73
2018-03-07T02:51:41.028Z,8.94
2018-03-07T02:54:08.432Z,8.87
2018-03-07T02:56:35.836Z,8.87
2018-03-07T02:59:03.323Z,9.23
2018-03-07T03:01:30.756Z,9.15
2018-03-07T03:03:58.214Z,8.87
2018-03-07T03:06:25.609Z,8.53
2018-03-07T03:08:53.027Z,8.82
2018-03-07T03:11:20.506Z,8.68
2018-03-07T03:13:48.913Z,8.73
2018-03-07T03:16:16.328Z,8.81
2018-03-07T03:18:44.157Z,8.67
2018-03-07T03:21:11.581Z,8.75
2018-03-07T03:23:38.980Z,8.48
2018-03-07T03:26:06.391Z,8.33
2018-03-07T03:28:33.894Z,8.52
2018-03-07T03:31:01.279Z,8.65
2018-03-07T03:33:28.800Z,8.41
2018-03-07T03:35:56.167Z,8.46
2018-03-07T03:38:23.752Z,8.31
2018-03-07T03:40:51.352Z,8.07
2018-03-07T03:43:18.746Z,7.98
2018-03-07T03:45:46.298Z,8.02
2018-03-07T03:48:14.336Z,8.10
2018-03-07T03:50:42.412Z,8.10
2018-03-07T03:53:09.828Z,7.91
2018-03-07T03:55:37.215Z,8.00
2018-03-07T03:58:04.596Z,8.00
2018-03-07T04:00:32.021Z,7.80
2018-03-07T04:03:00.302Z,7.73
2018-03-07T04:05:27.690Z,7.70
2018-03-07T04:07:55.087Z,7.68
2018-03-07T04:10:22.901Z,7.86
2018-03-07T04:12:50.320Z,8.00
2018-03-07T04:15:17.747Z,7.74
2018-03-07T04:17:45.264Z,7.88
2018-03-07T04:20:14.686Z,7.67
2018-03-07T04:22:42.079Z,7.80
2018-03-07T04:25:09.540Z,7.79
2018-03-07T04:27:36.939Z,7.77
2018-03-07T04:30:04.343Z,7.55
2018-03-07T04:32:31.752Z,7.64
2018-03-07T04:34:59.141Z,7.72
2018-03-07T04:37:26.698Z,7.93
2018-03-07T04:39:54.094Z,7.91
2018-03-07T04:42:21.592Z,7.94
2018-03-07T04:44:49.020Z,7.99
2018-03-07T04:47:16.621Z,7.97
2018-03-07T04:49:44.967Z,8.11
2018-03-07T04:52:12.361Z,8.18
2018-03-07T04:54:39.748Z,8.34
2018-03-07T04:57:07.149Z,8.25
2018-03-07T04:59:34.887Z,8.41
2018-03-07T05:02:02.268Z,8.39
2018-03-07T05:04:29.760Z,8.03
2018-03-07T05:06:57.148Z,7.94
2018-03-07T05:09:24.539Z,7.75
2018-03-07T05:11:51.963Z,7.85
2018-03-07T05:14:19.375Z,7.72
2018-03-07T05:16:46.759Z,7.49
2018-03-07T05:19:14.304Z,7.62
2018-03-07T05:21:42.613Z,7.70
2018-03-07T05:24:10.084Z,7.68
2018-03-07T05:26:37.447Z,7.50
2018-03-07T05:29:04.853Z,7.50
2018-03-07T05:31:32.248Z,7.64
2018-03-07T05:33:59.666Z,7.66
2018-03-07T05:36:27.049Z,7.55
2018-03-07T05:38:54.426Z,7.67
2018-03-07T05:41:21.835Z,7.72
2018-03-07T05:43:49.230Z,7.67
2018-03-07T05:46:16.986Z,7.67
2018-03-07T05:48:44.385Z,7.74
2018-03-07T05:51:11.768Z,7.81
2018-03-07T05:53:39.186Z,7.74
2018-03-07T05:56:06.787Z,7.67
2018-03-07T05:58:34.183Z,7.44
2018-03-07T06:01:01.556Z,7.51
2018-03-07T06:03:28.965Z,7.28
2018-03-07T06:05:56.497Z,7.26
2018-03-07T06:08:23.874Z,7.57
2018-03-07T06:10:51.335Z,7.67
2018-03-07T06:13:18.721Z,7.64
2018-03-07T06:15:46.114Z,7.41
2018-03-07T06:18:14.746Z,7.25
2018-03-07T06:20:42.230Z,7.48
2018-03-07T06:23:09.612Z,7.49
2018-03-07T06:25:38.166Z,7.70
2018-03-07T06:28:05.552Z,7.74
2018-03-07T06:30:32.957Z,7.62
2018-03-07T06:33:00.341Z,7.64
2018-03-07T06:35:28.197Z,7.64
2018-03-07T06:37:56.673Z,7.64
2018-03-07T06:40:24.055Z,7.53
2018-03-07T06:42:51.448Z,7.64
2018-03-07T06:45:18.844Z,7.77
2018-03-07T06:47:46.380Z,7.65
2018-03-07T06:50:14.609Z,7.52
2018-03-07T06:52:42.754Z,7.65
2018-03-07T06:55:10.180Z,7.79
2018-03-07T06:57:38.363Z,7.79
2018-03-07T07:00:05.762Z,8.19
2018-03-07T07:02:33.153Z,8.08
2018-03-07T07:05:00.549Z,8.44
2018-03-07T07:07:27.957Z,8.23
2018-03-07T07:09:55.455Z,7.94
2018-03-07T07:12:22.869Z,8.21
2018-03-07T07:14:50.425Z,7.87
2018-03-07T07:17:17.812Z,7.97
2018-03-07T07:19:45.659Z,8.18
2018-03-07T07:22:13.104Z,8.29
2018-03-07T07:24:40.503Z,8.11
2018-03-07T07:27:07.909Z,8.15
2018-03-07T07:29:35.311Z,8.42
2018-03-07T07:32:02.696Z,8.16
2018-03-07T07:34:30.115Z,8.46
2018-03-07T07:36:57.527Z,8.54
2018-03-07T07:39:24.905Z,8.32
2018-03-07T07:41:52.321Z,8.57
2018-03-07T07:44:19.703Z,8.56
2018-03-07T07:46:47.089Z,8.38
2018-03-07T07:49:14.868Z,8.26
2018-03-07T07:51:42.264Z,8.37
2018-03-07T07:54:09.688Z,8.22
2018-03-07T07:56:37.131Z,8.39
2018-03-07T07:59:04.694Z,8.53
2018-03-07T08:01:32.083Z,8.31
2018-03-07T08:03:59.471Z,8.29
2018-03-07T08:06:26.881Z,8.25
2018-03-07T08:08:54.450Z,8.36
2018-03-07T08:11:21.991Z,8.44
2018-03-07T08:13:49.783Z,8.49
2018-03-07T08:16:17.183Z,8.42
2018-03-07T08:18:44.912Z,8.55
2018-03-07T08:21:12.324Z,8.59
2018-03-07T08:23:39.810Z,8.62
2018-03-07T08:26:07.628Z,8.56
2018-03-07T08:28:37.294Z,8.53
2018-03-07T08:31:04.834Z,8.68
2018-03-07T08:33:32.388Z,8.61
2018-03-07T08:35:59.772Z,8.56
2018-03-07T08:38:27.173Z,8.75
2018-03-07T08:40:54.561Z,8.92
2018-03-07T08:43:21.959Z,8.90
2018-03-07T08:45:49.699Z,9.03
2018-03-07T08:48:17.353Z,8.91
2018-03-07T08:50:45.040Z,8.71
2018-03-07T08:53:12.455Z,8.76
2018-03-07T08:55:39.940Z,8.96
2018-03-07T08:58:07.332Z,8.96
2018-03-07T09:00:34.720Z,8.76
2018-03-07T09:03:02.263Z,9.19
2018-03-07T09:05:29.661Z,8.86
2018-03-07T09:07:57.049Z,8.96
2018-03-07T09:10:24.658Z,9.23
2018-03-07T09:12:52.985Z,9.39
2018-03-07T09:15:20.364Z,9.23
2018-03-07T09:17:47.758Z,9.56
2018-03-07T09:20:16.006Z,9.51
2018-03-07T09:22:43.407Z,9.55
2018-03-07T09:25:10.815Z,9.63
2018-03-07T09:27:38.219Z,9.53
2018-03-07T09:30:05.605Z,9.57
2018-03-07T09:32:33.005Z,9.67
2018-03-07T09:35:00.422Z,9.54
2018-03-07T09:37:27.823Z,9.78
2018-03-07T09:39:55.286Z,9.76
2018-03-07T09:42:22.687Z,9.74
2018-03-07T09:44:50.141Z,9.47
2018-03-07T09:47:17.768Z,9.84
2018-03-07T09:49:45.606Z,9.56
2018-03-07T09:52:12.996Z,9.61
2018-03-07T09:54:40.453Z,9.71
2018-03-07T09:57:07.896Z,9.58
2018-03-07T09:59:35.463Z,9.44
2018-03-07T10:02:02.841Z,9.51
2018-03-07T10:04:30.277Z,9.46
2018-03-07T10:06:57.668Z,10.08
2018-03-07T10:09:26.144Z,9.98
2018-03-07T10:11:53.553Z,9.58
2018-03-07T10:14:20.928Z,9.50
2018-03-07T10:16:48.335Z,9.38
2018-03-07T10:19:16.777Z,9.44
2018-03-07T10:21:44.198Z,9.49
2018-03-07T10:24:12.893Z,9.60
2018-03-07T10:26:40.306Z,9.79
2018-03-07T10:29:07.731Z,9.81
2018-03-07T10:31:35.097Z,9.76
2018-03-07T10:34:02.577Z,9.84
2018-03-07T10:36:30.061Z,10.14
2018-03-07T10:38:57.494Z,10.06
2018-03-07T10:41:25.133Z,9.89
2018-03-07T10:43:52.591Z,10.10
2018-03-07T10:46:19.985Z,10.26
2018-03-07T10:48:47.566Z,10.05
2018-03-07T10:51:15.702Z,9.95
2018-03-07T10:53:43.654Z,10.27
2018-03-07T10:56:11.035Z,10.48
2018-03-07T10:58:38.621Z,10.41
2018-03-07T11:01:06.032Z,10.55
2018-03-07T11:03:33.550Z,10.28
2018-03-07T11:06:01.227Z,10.35
2018-03-07T11:08:28.653Z,10.42
2018-03-07T11:10:56.032Z,10.91
2018-03-07T11:13:23.440Z,10.89
2018-03-07T11:15:50.897Z,10.83
2018-03-07T11:18:18.321Z,10.85
2018-03-07T11:20:45.869Z,10.71
2018-03-07T11:23:13.267Z,10.74
2018-03-07T11:25:40.686Z,10.75
2018-03-07T11:28:08.057Z,10.85
2018-03-07T11:30:35.457Z,10.87
2018-03-07T11:33:02.849Z,10.90
2018-03-07T11:35:30.233Z,10.77
2018-03-07T11:37:57.627Z,10.96
2018-03-07T11:40:25.333Z,10.95
2018-03-07T11:42:52.728Z,10.48
2018-03-07T11:45:20.359Z,10.49
2018-03-07T11:47:47.798Z,10.63
2018-03-07T11:50:15.800Z,10.80
2018-03-07T11:52:43.362Z,10.96
2018-03-07T11:55:11.032Z,10.99
2018-03-07T11:57:38.442Z,11.08
2018-03-07T12:00:06.069Z,11.15
2018-03-07T12:02:33.654Z,11.10
2018-03-07T12:05:01.162Z,11.02
2018-03-07T12:07:28.588Z,11.58
2018-03-07T12:09:56.494Z,11.48
2018-03-07T12:12:24.128Z,11.41
2018-03-07T12:14:51.633Z,11.65
2018-03-07T12:17:19.085Z,11.67
2018-03-07T12:19:47.655Z,11.82
2018-03-07T12:22:15.495Z,12.03
2018-03-07T12:24:42.901Z,11.80
2018-03-07T12:27:10.439Z,12.36
2018-03-07T12:29:37.982Z,12.15
2018-03-07T12:32:05.376Z,12.01
2018-03-07T12:34:33.092Z,11.76
2018-03-07T12:37:00.548Z,11.68
2018-03-07T12:39:27.993Z,11.57
2018-03-07T12:41:55.413Z,11.55
2018-03-07T12:44:22.795Z,11.55
2018-03-07T12:46:50.208Z,11.69
2018-03-07T12:49:17.689Z,11.48
2018-03-07T12:51:46.153Z,11.67
2018-03-07T12:54:13.599Z,11.60
2018-03-07T12:56:42.132Z,11.54
2018-03-07T12:59:09.533Z,11.94
2018-03-07T13:01:36.920Z,12.51
2018-03-07T13:04:04.288Z,12.43
2018-03-07T13:06:31.684Z,12.44
2018-03-07T13:08:59.337Z,12.74
2018-03-07T13:11:26.724Z,12.24
2018-03-07T13:13:54.147Z,12.08
2018-03-07T13:16:21.543Z,11.85
2018-03-07T13:18:48.946Z,11.65
2018-03-07T13:21:18.324Z,11.40
2018-03-07T13:23:46.340Z,11.39
2018-03-07T13:26:13.750Z,11.49
2018-03-07T13:28:41.141Z,11.45
2018-03-07T13:31:08.562Z,11.74
2018-03-07T13:33:35.949Z,11.81
2018-03-07T13:36:03.415Z,11.91
2018-03-07T13:38:31.048Z,12.09
2018-03-07T13:40:58.468Z,11.88
2018-03-07T13:43:26.023Z,11.69
2018-03-07T13:45:53.442Z,11.60
2018-03-07T13:48:20.855Z,11.79
2018-03-07T13:50:48.265Z,12.14
2018-03-07T13:53:16.509Z,12.21
2018-03-07T13:55:44.892Z,12.50
2018-03-07T13:58:12.305Z,12.67
2018-03-07T14:00:39.684Z,13.83
2018-03-07T14:03:07.093Z,13.05
2018-03-07T14:05:34.653Z,12.28
2018-03-07T14:08:03.160Z,12.54
2018-03-07T14:10:30.528Z,13.36
2018-03-07T14:12:58.026Z,16.18
2018-03-07T14:15:25.742Z,14.92
2018-03-07T14:17:53.309Z,15.49
2018-03-07T14:20:20.700Z,13.68
2018-03-07T14:22:48.144Z,13.31
2018-03-07T14:25:16.560Z,12.57
2018-03-07T14:27:48.102Z,12.96
2018-03-07T14:30:15.510Z,12.63
2018-03-07T14:32:42.991Z,12.66
2018-03-07T14:35:10.401Z,12.64
2018-03-07T14:37:38.029Z,12.39
2018-03-07T14:40:05.669Z,12.24
2018-03-07T14:42:34.190Z,12.00
2018-03-07T14:45:01.637Z,12.21
2018-03-07T14:47:29.025Z,12.25
2018-03-07T14:49:56.496Z,13.49
2018-03-07T14:52:23.960Z,14.78
2018-03-07T14:54:51.392Z,16.01
2018-03-07T14:57:19.069Z,14.57
2018-03-07T14:59:46.850Z,13.63
2018-03-07T15:02:14.349Z,12.98
2018-03-07T15:04:41.783Z,13.92
2018-03-07T15:07:09.376Z,15.38
2018-03-07T15:09:36.803Z,16.70
2018-03-07T15:12:04.219Z,15.24
2018-03-07T15:14:31.692Z,14.52
2018-03-07T15:16:59.237Z,13.90
2018-03-07T15:19:26.660Z,13.32
2018-03-07T15:21:54.083Z,12.77
2018-03-07T15:24:21.524Z,12.47
2018-03-07T15:26:49.085Z,12.48
2018-03-07T15:29:16.882Z,12.56
2018-03-07T15:31:44.512Z,12.96
2018-03-07T15:34:12.163Z,12.37
2018-03-07T15:36:39.565Z,12.52
2018-03-07T15:39:07.097Z,12.21
2018-03-07T15:41:34.651Z,12.19
2018-03-07T15:44:02.200Z,12.12
2018-03-07T15:46:29.640Z,12.10
2018-03-07T15:48:57.481Z,12.36
2018-03-07T15:51:25.004Z,12.54
2018-03-07T15:53:52.427Z,11.82
2018-03-07T15:56:19.820Z,11.77
2018-03-07T15:58:47.403Z,11.58
2018-03-07T16:01:14.793Z,11.78
2018-03-07T16:03:42.191Z,11.76
2018-03-07T16:06:09.688Z,11.90
2018-03-07T16:08:37.320Z,11.59
2018-03-07T16:11:04.705Z,11.51
2018-03-07T16:13:32.137Z,11.58
2018-03-07T16:15:59.817Z,11.27
2018-03-07T16:18:28.305Z,10.77
2018-03-07T16:20:55.781Z,10.60
2018-03-07T16:23:24.270Z,10.59
2018-03-07T16:25:51.645Z,10.41
2018-03-07T16:28:19.072Z,10.44
2018-03-07T16:30:47.172Z,10.30
2018-03-07T16:33:14.932Z,10.27
2018-03-07T16:35:42.384Z,10.09
2018-03-07T16:38:09.910Z,10.07
2018-03-07T16:40:37.337Z,10.05
2018-03-07T16:43:04.715Z,9.82
2018-03-07T16:45:32.121Z,10.08
2018-03-07T16:47:59.601Z,9.98
2018-03-07T16:50:26.989Z,9.73
2018-03-07T16:52:54.397Z,9.70
2018-03-07T16:55:21.972Z,9.76
2018-03-07T16:57:49.811Z,9.46
2018-03-07T17:00:17.300Z,9.58
2018-03-07T17:02:45.089Z,9.41
2018-03-07T17:05:12.845Z,9.37
2018-03-07T17:07:40.254Z,9.52
2018-03-07T17:10:07.745Z,9.61
2018-03-07T17:12:35.272Z,9.60
2018-03-07T17:15:02.998Z,9.36
2018-03-07T17:17:30.367Z,9.33
2018-03-07T17:19:57.747Z,9.35
2018-03-07T17:22:25.172Z,9.49
2018-03-07T17:24:52.640Z,9.34
2018-03-07T17:27:20.018Z,9.24
2018-03-07T17:29:47.462Z,9.39
2018-03-07T17:32:14.907Z,9.25
2018-03-07T17:34:42.303Z,9.33
2018-03-07T17:37:09.720Z,9.30
2018-03-07T17:39:37.085Z,9.16
2018-03-07T17:42:04.833Z,9.26
2018-03-07T17:44:32.272Z,9.50
2018-03-07T17:46:59.665Z,9.27
2018-03-07T17:49:27.344Z,9.45
2018-03-07T17:51:54.766Z,9.42
2018-03-07T17:54:22.285Z,9.32
2018-03-07T17:56:49.684Z,9.26
2018-03-07T17:59:17.519Z,9.54
2018-03-07T18:01:44.939Z,9.37
2018-03-07T18:04:12.375Z,9.43
2018-03-07T18:06:39.749Z,9.39
2018-03-07T18:09:07.139Z,9.36
2018-03-07T18:11:34.770Z,9.17
2018-03-07T18:14:02.214Z,9.09
2018-03-07T18:16:29.644Z,9.15
2018-03-07T18:18:57.044Z,9.04
2018-03-07T18:21:24.509Z,9.02
2018-03-07T18:23:52.107Z,9.15
2018-03-07T18:26:19.485Z,9.03
2018-03-07T18:28:47.612Z,9.34
2018-03-07T18:31:15.009Z,9.37
2018-03-07T18:33:42.393Z,9.12
2018-03-07T18:36:10.496Z,9.17
2018-03-07T18:38:37.970Z,9.22
2018-03-07T18:41:06.289Z,9.08
2018-03-07T18:43:33.733Z,9.18
2018-03-07T18:46:01.678Z,8.97
2018-03-07T18:48:29.102Z,9.07
2018-03-07T18:50:56.541Z,9.24
2018-03-07T18:53:24.053Z,9.06
2018-03-07T18:55:51.435Z,9.15
2018-03-07T18:58:19.076Z,9.12
2018-03-07T19:00:46.569Z,9.02
2018-03-07T19:03:18.289Z,9.10
2018-03-07T19:05:45.960Z,9.03
2018-03-07T19:08:13.600Z,8.95
2018-03-07T19:10:41.044Z,9.05
2018-03-07T19:13:08.489Z,8.95
2018-03-07T19:15:35.928Z,8.82
2018-03-07T19:18:03.412Z,8.80
2018-03-07T19:20:31.155Z,8.93
2018-03-07T19:22:58.833Z,8.96
2018-03-07T19:25:26.306Z,8.90
2018-03-07T19:27:53.684Z,8.94
2018-03-07T19:30:21.691Z,8.83
2018-03-07T19:32:49.087Z,8.89
2018-03-07T19:35:16.664Z,8.88
2018-03-07T19:37:44.112Z,9.06
2018-03-07T19:40:11.514Z,9.04
2018-03-07T19:42:38.924Z,9.16
2018-03-07T19:45:06.538Z,9.10
2018-03-07T19:47:34.035Z,9.11
2018-03-07T19:50:01.596Z,9.08
2018-03-07T19:52:28.983Z,9.24
2018-03-07T19:54:56.592Z,9.03
2018-03-07T19:57:23.975Z,9.02
2018-03-07T19:59:51.354Z,9.02
2018-03-07T20:02:18.736Z,9.13
2018-03-07T20:04:46.116Z,8.95
2018-03-07T20:07:13.510Z,9.02
2018-03-07T20:09:40.872Z,8.84
2018-03-07T20:12:08.269Z,8.97
2018-03-07T20:14:35.634Z,9.17
2018-03-07T20:17:03.076Z,8.84
2018-03-07T20:19:30.473Z,8.78
2018-03-07T20:21:57.859Z,8.78
2018-03-07T20:24:25.265Z,8.73
2018-03-07T20:26:52.639Z,8.80
2018-03-07T20:29:20.021Z,8.70
2018-03-07T20:31:48.367Z,8.81
2018-03-07T20:34:15.878Z,8.74
2018-03-07T20:36:43.286Z,8.78
2018-03-07T20:39:10.771Z,8.81
2018-03-07T20:41:38.178Z,8.97
2018-03-07T20:44:05.572Z,8.67
2018-03-07T20:46:32.981Z,8.74
2018-03-07T20:49:00.549Z,8.60
2018-03-07T20:51:27.994Z,8.70
2018-03-07T20:53:55.401Z,8.88
2018-03-07T20:56:22.846Z,8.76
2018-03-07T20:58:50.218Z,8.75
2018-03-07T21:01:20.434Z,8.90
2018-03-07T21:03:48.471Z,8.84
2018-03-07T21:06:15.887Z,8.86
2018-03-07T21:08:43.294Z,8.90
2018-03-07T21:11:10.722Z,8.84
2018-03-07T21:13:38.253Z,8.60
2018-03-07T21:16:05.737Z,8.73
2018-03-07T21:18:34.049Z,8.79
2018-03-07T21:21:01.580Z,8.63
2018-03-07T21:23:28.975Z,8.60
2018-03-07T21:25:56.413Z,8.59
2018-03-07T21:28:23.795Z,8.73
2018-03-07T21:30:51.217Z,8.68
2018-03-07T21:33:18.752Z,8.71
2018-03-07T21:35:46.132Z,8.60
2018-03-07T21:38:13.516Z,8.64
2018-03-07T21:40:41.379Z,8.44
2018-03-07T21:43:08.818Z,8.45
2018-03-07T21:45:36.544Z,8.46
2018-03-07T21:48:03.976Z,8.49
2018-03-07T21:50:31.360Z,8.50
2018-03-07T21:52:58.872Z,8.47
2018-03-07T21:55:26.403Z,8.50
2018-03-07T21:57:53.801Z,8.40
2018-03-07T22:00:21.206Z,8.54
2018-03-07T22:02:48.677Z,8.29
2018-03-07T22:05:16.148Z,8.33
2018-03-07T22:07:43.621Z,8.44
2018-03-07T22:10:11.017Z,8.34
2018-03-07T22:12:38.776Z,8.13
2018-03-07T22:15:06.207Z,8.12
2018-03-07T22:17:33.589Z,8.16
2018-03-07T22:20:00.981Z,8.12
2018-03-07T22:22:28.437Z,8.11
2018-03-07T22:24:55.972Z,8.07
2018-03-07T22:27:23.366Z,8.09
2018-03-07T22:29:50.793Z,8.01
2018-03-07T22:32:18.767Z,8.03
2018-03-07T22:34:46.159Z,8.11
2018-03-07T22:37:13.629Z,8.18
2018-03-07T22:39:40.951Z,8.18
2018-03-07T22:42:08.602Z,8.14
2018-03-07T22:44:36.201Z,8.01
2018-03-07T22:47:03.653Z,7.99
2018-03-07T22:49:31.263Z,7.95
2018-03-07T22:52:00.083Z,8.18
2018-03-07T22:54:27.540Z,8.08
2018-03-07T22:56:55.045Z,8.28
2018-03-07T22:59:22.432Z,8.35
2018-03-07T23:01:49.828Z,8.40
2018-03-07T23:04:17.421Z,8.07
2018-03-07T23:06:44.889Z,8.19
2018-03-07T23:09:12.279Z,8.14
2018-03-07T23:11:39.669Z,8.34
2018-03-07T23:14:07.072Z,8.37
2018-03-07T23:16:34.501Z,8.03
2018-03-07T23:19:02.524Z,7.94
2018-03-07T23:21:29.903Z,7.97
2018-03-07T23:23:57.297Z,8.06
2018-03-07T23:26:25.015Z,7.97
2018-03-07T23:28:52.398Z,7.89
2018-03-07T23:31:20.032Z,7.84
2018-03-07T23:33:47.572Z,7.88
2018-03-07T23:36:15.033Z,7.87
2018-03-07T23:38:42.436Z,7.82
2018-03-07T23:41:09.939Z,7.87
2018-03-07T23:43:37.397Z,7.74
2018-03-07T23:46:04.782Z,7.79
2018-03-07T23:48:32.373Z,7.81
2018-03-07T23:50:59.783Z,7.85
2018-03-07T23:53:27.685Z,7.73
2018-03-07T23:55:55.172Z,7.71
2018-03-07T23:58:23.583Z,7.84
